createdAt,value
2022-11-17T06:28:56.823Z,98922.28
2022-11-17T06:34:01.922Z,98929.03
2022-11-17T06:39:04.137Z,98912.31
2022-11-17T06:44:06.224Z,98903.94
2022-11-17T06:49:08.660Z,98919.88
2022-11-17T06:54:12.379Z,98929.31
2022-11-17T06:59:16.055Z,98926.84
2022-11-17T07:04:18.206Z,98936.31
2022-11-17T07:09:20.277Z,98946.59
2022-11-17T07:14:22.363Z,98936.63
2022-11-17T07:19:24.392Z,98943.38
2022-11-17T07:24:26.446Z,98932.06
2022-11-17T07:29:30.499Z,98935.81
2022-11-17T07:34:32.572Z,98922.00
2022-11-17T07:39:34.616Z,98919.59
2022-11-17T07:44:36.693Z,98928.22
2022-11-17T07:49:38.735Z,98939.03
2022-11-17T07:54:40.814Z,98923.84
2022-11-17T07:59:42.869Z,98939.25
2022-11-17T08:04:44.910Z,98925.47
2022-11-17T08:09:46.960Z,98922.16
2022-11-17T08:14:49.937Z,98941.00
2022-11-17T08:19:52.061Z,98927.16
2022-11-17T08:24:54.186Z,98951.72
2022-11-17T08:29:56.247Z,98956.53
2022-11-17T08:34:58.261Z,98951.59
2022-11-17T08:40:00.365Z,98956.91
2022-11-17T08:45:02.398Z,98964.53
2022-11-17T08:50:06.215Z,98970.47
2022-11-17T08:55:08.710Z,98954.63
2022-11-17T09:00:11.574Z,98984.91
2022-11-17T09:05:13.718Z,98988.34
2022-11-17T09:10:15.789Z,98983.88
2022-11-17T09:15:17.961Z,98975.38
2022-11-17T09:48:45.742Z,99011.81
2022-11-17T09:54:01.683Z,98992.81
2022-11-17T09:59:06.584Z,98985.50
2022-11-17T10:04:14.251Z,98972.28
2022-11-17T10:09:41.524Z,98980.31
2022-11-17T10:14:43.765Z,98977.59
2022-11-17T10:19:45.807Z,98991.62
2022-11-17T10:24:55.331Z,98984.50
2022-11-17T10:30:19.068Z,98989.66
2022-11-17T10:35:26.955Z,99007.66
2022-11-17T10:40:52.954Z,98995.97
2022-11-17T10:46:07.426Z,99000.81
2022-11-17T10:51:19.489Z,98995.31
2022-11-17T10:56:21.957Z,98993.72
2022-11-17T11:01:38.064Z,98991.22
2022-11-17T11:06:40.151Z,98996.66
2022-11-17T11:11:48.991Z,98989.41
2022-11-17T11:16:51.295Z,98980.84
2022-11-17T11:22:31.138Z,98985.31
2022-11-17T11:27:59.948Z,98985.50
2022-11-17T11:33:17.321Z,98990.25
2022-11-17T11:38:50.079Z,98976.41
2022-11-17T11:44:16.711Z,98971.84
2022-11-17T11:49:53.037Z,98985.75
2022-11-17T11:55:14.491Z,98969.91
2022-11-17T12:00:17.829Z,98959.59
2022-11-17T12:05:28.790Z,98966.31
2022-11-17T12:10:34.335Z,98962.34
2022-11-17T12:15:37.153Z,98971.31
2022-11-17T12:20:39.114Z,98973.34
2022-11-17T12:25:54.730Z,98983.94
2022-11-17T12:31:24.347Z,98970.69
2022-11-17T12:36:31.157Z,98972.47
2022-11-17T12:41:48.538Z,98984.81
2022-11-17T12:47:00.859Z,98981.88
2022-11-17T12:52:11.744Z,98986.47
2022-11-17T12:57:20.937Z,98979.63
2022-11-17T13:02:32.609Z,98967.34
2022-11-17T13:07:34.722Z,98981.19
2022-11-17T13:12:37.291Z,98982.38
2022-11-17T13:17:42.492Z,98979.37
2022-11-17T13:23:01.989Z,98985.72
2022-11-17T13:28:05.407Z,98983.97
2022-11-17T13:33:12.388Z,98984.91
2022-11-17T13:38:22.499Z,98992.53
2022-11-17T13:43:26.314Z,99007.53
2022-11-17T13:48:37.080Z,99008.97
2022-11-17T13:53:50.292Z,99007.25
2022-11-17T13:58:53.263Z,98996.91
2022-11-17T14:04:19.495Z,99005.75
2022-11-17T14:09:23.927Z,99001.97
2022-11-17T14:14:36.359Z,99008.97
2022-11-17T14:19:38.656Z,99000.19
2022-11-17T14:24:40.984Z,99007.38
2022-11-17T14:29:43.026Z,98989.03
2022-11-17T14:34:45.028Z,98981.00
2022-11-17T14:39:47.039Z,98999.41
2022-11-17T14:44:49.223Z,99000.53
2022-11-17T14:49:51.359Z,98998.66
2022-11-17T14:54:53.429Z,99008.97
2022-11-17T14:59:55.451Z,99011.53
2022-11-17T15:04:59.856Z,99012.34
2022-11-17T15:10:03.582Z,99003.72
2022-11-17T15:15:06.402Z,98997.50
2022-11-17T15:20:09.701Z,98998.59
2022-11-17T15:25:12.229Z,99011.59
2022-11-17T15:30:14.542Z,99007.53
2022-11-17T15:35:16.579Z,99005.44
2022-11-17T15:40:19.710Z,99003.09
2022-11-17T15:45:21.858Z,98985.25
2022-11-17T15:50:23.930Z,99006.94
2022-11-17T15:55:25.980Z,98995.84
2022-11-17T16:00:28.025Z,99003.41
2022-11-17T16:05:30.071Z,98983.34
2022-11-17T16:10:32.125Z,98995.25
2022-11-17T16:15:34.121Z,98977.72
2022-11-17T16:20:36.298Z,98971.22
2022-11-17T16:25:42.245Z,98984.44
2022-11-17T16:30:44.647Z,98980.91
2022-11-17T16:35:46.750Z,98974.41
2022-11-17T16:40:48.865Z,98972.56
2022-11-17T16:45:50.924Z,99013.72
2022-11-17T16:50:52.984Z,99019.44
2022-11-17T16:55:54.988Z,99041.13
2022-11-17T17:00:57.668Z,99032.19
2022-11-17T17:06:03.909Z,99027.06
2022-11-17T17:11:15.911Z,99037.06
2022-11-17T17:16:19.648Z,99054.38
2022-11-17T17:21:23.463Z,99060.88
2022-11-17T17:26:27.601Z,99057.41
2022-11-17T17:31:32.742Z,99045.97
2022-11-17T17:36:35.347Z,99042.72
2022-11-17T17:41:41.032Z,99047.09
2022-11-17T17:46:43.305Z,99037.03
2022-11-17T17:51:45.607Z,99049.44
2022-11-17T17:56:48.235Z,99031.31
2022-11-17T18:01:50.339Z,99048.09
2022-11-17T18:06:52.492Z,99053.47
2022-11-17T18:11:54.522Z,99056.69
2022-11-17T18:16:56.637Z,99044.81
2022-11-17T18:21:58.763Z,99041.25
2022-11-17T18:27:00.816Z,99035.22
2022-11-17T18:32:02.980Z,99020.09
2022-11-17T18:37:05.133Z,99019.03
2022-11-17T18:42:07.337Z,99021.09
2022-11-17T18:47:09.383Z,99023.81
2022-11-17T18:52:11.507Z,98998.41
2022-11-17T18:57:13.600Z,99011.13
2022-11-17T19:02:15.831Z,98993.94
2022-11-17T19:07:17.885Z,99008.28
2022-11-17T19:12:20.066Z,99011.25
2022-11-17T19:17:22.135Z,99004.00
2022-11-17T19:22:24.218Z,99001.91
2022-11-17T19:27:26.657Z,98987.00
2022-11-17T19:32:28.772Z,98990.50
2022-11-17T19:37:30.856Z,98984.88
2022-11-17T19:42:32.992Z,98989.19
2022-11-17T19:47:35.811Z,99002.47
2022-11-17T19:52:37.833Z,99008.69
2022-11-17T19:57:39.887Z,98990.78
2022-11-17T20:02:41.926Z,98984.06
2022-11-17T20:07:44.047Z,99006.50
2022-11-17T20:12:46.488Z,98978.66
2022-11-17T20:17:48.527Z,98992.44
2022-11-17T20:22:50.722Z,99012.72
2022-11-17T20:27:52.779Z,98977.25
2022-11-17T20:32:54.767Z,98977.56
2022-11-17T20:37:56.819Z,99006.56
2022-11-17T20:42:59.155Z,99006.25
2022-11-17T20:48:01.191Z,99013.59
2022-11-17T20:53:03.211Z,99028.50
2022-11-17T20:58:05.235Z,99026.63
2022-11-17T21:03:08.315Z,99013.34
2022-11-17T21:08:10.506Z,99010.37
2022-11-17T21:13:12.524Z,99004.97
2022-11-17T21:18:24.584Z,99012.25
